Lake Arthur, Louisiana
Current Conditions -  °F | °C
As of 1:15 AM on Saturday 29 Nov 2014 (Local Time) from K3R7 Reporting Station
Clear Clear  
Wind Chill: 54°   Ceiling: Unl
Heat Index: 54°   Visibility: 10mi
Dew Point: 53°   Wind: 8mph
Humidity: 97%   Direction: 150°SSE
Pressure: 30.16"   Gusts: NA
Location:  30.08°N, 92.67°W
Report Text: K3R7 290715Z AUTO 15007KT 10SM CLR 12/12 A3016 RMK AO2 T01240119
Loading
Personal Weather Stations






























Interactive Weather Map New forecast layout! Learn more

10-Day Weather Forecast

Advertisements
Track Severe Weather on mobile